Time;durP1;ratioP1;P1;durP2;ratioP2;P2;SDS_P1;SDS_P2;PMS_P1;PMS_P2;Temp;Humidity;BMP_temperature;BMP_pressure;BME280_temperature;BME280_humidity;BME280_pressure;Samples;Min_cycle;Max_cycle;Signal;HPM_P1;HPM_P2
2023/04/06 00:02:29;;;;;;;8.38;3.08;;;;;;;2.86;55.48;100049.47;12213486;19;20006;-80
2023/04/06 00:06:31;;;;;;;5.28;3.05;;;;;;;2.89;55.38;100044.47;12190947;19;20416;-80
2023/04/06 00:10:33;;;;;;;6.40;3.38;;;;;;;3.02;56.18;100045.63;12213063;19;20076;-81
2023/04/06 00:14:35;;;;;;;5.03;2.80;;;;;;;3.12;56.46;100044.28;12190518;19;20010;-81
2023/04/06 00:18:37;;;;;;;6.13;2.67;;;;;;;3.18;56.67;100040.75;12210658;19;20010;-80
2023/04/06 00:22:39;;;;;;;6.20;3.05;;;;;;;3.17;56.63;100036.34;12209545;19;20372;-79
2023/04/06 00:26:40;;;;;;;6.43;2.97;;;;;;;3.14;56.33;100039.44;12185446;19;20034;-81
2023/04/06 00:30:42;;;;;;;6.13;2.78;;;;;;;3.03;56.59;100042.69;12208063;19;20471;-81
2023/04/06 00:34:44;;;;;;;5.78;3.25;;;;;;;2.86;57.66;100039.41;12203626;19;20019;-80
2023/04/06 00:38:46;;;;;;;7.60;2.33;;;;;;;2.76;58.26;100025.25;12183401;19;20010;-81
2023/04/06 00:42:47;;;;;;;4.63;2.30;;;;;;;2.77;59.24;100020.66;12203010;19;20017;-81
2023/04/06 00:46:49;;;;;;;8.30;3.05;;;;;;;2.78;59.24;100022.38;12204103;19;20011;-80
2023/04/06 00:50:51;;;;;;;5.25;2.38;;;;;;;2.81;59.20;100016.53;12225608;19;20046;-79
2023/04/06 00:54:53;;;;;;;6.80;3.05;;;;;;;2.81;59.36;100013.81;12203369;19;20030;-80
2023/04/06 00:58:56;;;;;;;5.72;2.83;;;;;;;2.77;59.08;100004.31;12199203;19;20014;-81
2023/04/06 01:02:59;;;;;;;3.78;2.20;;;;;;;2.73;59.38;99998.44;12179375;19;21411;-81
2023/04/06 01:07:08;;;;;;;6.03;3.28;;;;;;;2.66;59.51;99998.38;12203934;19;20433;-80
2023/04/06 01:11:18;;;;;;;6.72;3.22;;;;;;;2.62;59.46;100001.69;12203576;19;20014;-81
2023/04/06 01:15:23;;;;;;;9.13;3.25;;;;;;;2.57;60.10;99990.53;12177380;19;20091;-80
2023/04/06 01:19:26;;;;;;;6.22;2.90;;;;;;;2.51;60.69;99993.00;12201863;19;20006;-80
2023/04/06 01:23:29;;;;;;;6.07;3.10;;;;;;;2.45;61.26;99991.06;12201189;19;20021;-80
2023/04/06 01:27:31;;;;;;;6.03;3.22;;;;;;;2.38;61.87;99995.59;12183028;19;20007;-79
2023/04/06 01:31:50;;;;;;;6.43;2.85;;;;;;;2.31;62.62;99982.94;12259666;19;19999;-79
2023/04/06 01:35:53;;;;;;;6.10;3.17;;;;;;;2.24;62.24;99978.25;12235557;19;20020;-79
2023/04/06 01:39:55;;;;;;;5.03;3.08;;;;;;;2.22;62.33;99983.03;12257173;19;20015;-79
2023/04/06 01:44:16;;;;;;;7.90;3.33;;;;;;;2.17;62.93;99996.38;12260309;19;20003;-79
2023/04/06 01:48:22;;;;;;;7.15;3.15;;;;;;;1.93;62.52;99997.53;12235362;19;20010;-79
2023/04/06 01:52:24;;;;;;;7.10;3.10;;;;;;;1.73;63.28;99993.72;12260296;19;20003;-79
2023/04/06 01:56:27;;;;;;;4.15;2.83;;;;;;;1.63;64.04;99998.59;12254924;19;20005;-79
2023/04/06 02:00:40;;;;;;;9.63;2.90;;;;;;;1.52;64.57;99989.88;12208008;19;20444;-80
2023/04/06 02:04:42;;;;;;;5.22;2.70;;;;;;;1.45;64.78;99983.50;12221391;19;20006;-81
2023/04/06 02:08:47;;;;;;;5.55;3.10;;;;;;;1.44;64.86;99979.09;12231255;19;20010;-79
2023/04/06 02:12:49;;;;;;;7.78;3.38;;;;;;;1.45;64.99;99972.63;12263601;19;19999;-79
2023/04/06 02:16:57;;;;;;;6.00;3.65;;;;;;;1.43;64.92;99973.84;12212276;19;20010;-79
2023/04/06 02:20:59;;;;;;;6.77;3.40;;;;;;;1.42;65.21;99975.72;12189483;19;20031;-81
2023/04/06 02:25:01;;;;;;;7.90;3.38;;;;;;;1.45;65.35;99971.78;12215615;19;20115;-81
2023/04/06 02:29:02;;;;;;;6.00;3.47;;;;;;;1.45;65.41;99966.38;12212138;19;20002;-81
2023/04/06 02:33:06;;;;;;;5.13;3.05;;;;;;;1.41;66.00;99974.03;12196167;19;20013;-80
2023/04/06 02:37:16;;;;;;;6.25;2.88;;;;;;;1.36;66.96;99962.91;12213155;19;20500;-80
2023/04/06 02:41:18;;;;;;;5.57;3.25;;;;;;;1.33;67.05;99969.53;12212719;19;19998;-79
2023/04/06 02:45:20;;;;;;;7.35;3.50;;;;;;;1.26;67.41;99960.47;12195612;19;20016;-78
2023/04/06 02:49:22;;;;;;;6.57;3.27;;;;;;;1.21;68.12;99965.59;12250854;19;20059;-78
2023/04/06 02:53:28;;;;;;;4.78;2.70;;;;;;;1.09;67.79;99967.91;12247399;19;20401;-79
2023/04/06 02:57:30;;;;;;;7.90;3.60;;;;;;;1.00;68.11;99973.63;12222413;19;20021;-79
2023/04/06 03:01:32;;;;;;;6.03;3.10;;;;;;;0.93;69.37;99969.97;12226453;19;20010;-80
2023/04/06 03:05:37;;;;;;;7.43;3.80;;;;;;;0.89;70.42;99973.03;12200593;19;20010;-79
2023/04/06 03:09:40;;;;;;;7.13;3.72;;;;;;;0.87;70.22;99974.25;12218887;19;20035;-80
2023/04/06 03:13:42;;;;;;;7.00;3.20;;;;;;;0.86;70.25;99978.84;12211154;19;20006;-79
2023/04/06 03:17:44;;;;;;;5.03;3.10;;;;;;;0.86;70.27;99972.53;12185967;19;20002;-79
2023/04/06 03:22:01;;;;;;;4.75;2.75;;;;;;;0.86;70.40;99972.53;12204934;19;20077;-79
2023/04/06 03:26:03;;;;;;;7.70;3.37;;;;;;;0.85;70.71;99977.13;12203170;19;20018;-79
2023/04/06 03:30:06;;;;;;;6.33;3.67;;;;;;;0.83;70.46;99981.03;12183283;19;20126;-79
2023/04/06 03:34:09;;;;;;;7.07;3.53;;;;;;;0.78;70.70;99973.47;12205404;19;20039;-79
2023/04/06 03:38:11;;;;;;;10.05;4.30;;;;;;;0.78;71.36;99984.31;12205738;19;21226;-79
2023/04/06 03:42:12;;;;;;;9.00;5.18;;;;;;;0.76;71.61;99986.38;12182616;19;20020;-80
2023/04/06 03:46:22;;;;;;;9.15;5.15;;;;;;;0.73;72.63;99983.19;12197331;19;20007;-79
2023/04/06 03:50:27;;;;;;;9.50;4.90;;;;;;;0.68;73.50;99986.41;12203734;19;20793;-79
2023/04/06 03:54:29;;;;;;;8.02;4.55;;;;;;;0.65;73.26;99978.66;12178527;19;20087;-80
2023/04/06 03:58:31;;;;;;;6.63;4.72;;;;;;;0.65;72.91;99981.38;12198754;19;20011;-80
2023/04/06 04:02:33;;;;;;;10.17;4.43;;;;;;;0.67;72.65;99985.59;12187836;19;20017;-79
2023/04/06 04:06:36;;;;;;;11.45;4.85;;;;;;;0.72;73.08;99979.63;12202823;19;20010;-80
2023/04/06 04:10:39;;;;;;;11.65;5.78;;;;;;;0.75;73.04;99979.25;12200206;19;20456;-79
2023/04/06 04:14:40;;;;;;;12.93;5.82;;;;;;;0.76;73.50;99978.22;12183004;19;20006;-79
2023/04/06 04:18:43;;;;;;;11.40;5.30;;;;;;;0.83;73.41;99986.47;12202285;19;20031;-79
2023/04/06 04:22:45;;;;;;;;;;;;;;;0.82;74.13;99991.06;12202290;19;21282;-79
2023/04/06 04:26:46;;;;;;;13.07;5.97;;;;;;;0.75;74.55;100003.69;12177511;19;19910;-80
2023/04/06 04:30:49;;;;;;;11.52;6.00;;;;;;;0.70;75.41;100006.06;12200989;19;20003;-79
2023/04/06 04:34:50;;;;;;;10.98;6.18;;;;;;;0.68;76.43;100010.81;12200570;19;20362;-79
2023/04/06 04:39:05;;;;;;;13.50;6.85;;;;;;;0.61;77.02;100008.00;12181353;19;20010;-80
2023/04/06 04:43:12;;;;;;;11.25;6.50;;;;;;;0.60;77.21;99995.47;12197342;19;20097;-80
2023/04/06 04:47:14;;;;;;;11.13;6.47;;;;;;;0.62;77.56;100000.72;12196813;19;20015;-79
2023/04/06 04:51:20;;;;;;;10.25;5.85;;;;;;;0.66;77.49;100010.19;12175843;19;20496;-80
2023/04/06 04:55:47;;;;;;;14.23;6.10;;;;;;;0.71;78.30;100013.19;12193190;19;20531;-80
2023/04/06 04:59:50;;;;;;;10.70;6.07;;;;;;;0.73;77.97;100016.56;12174549;19;20006;-79
2023/04/06 05:03:54;;;;;;;13.35;6.20;;;;;;;0.72;78.58;100014.88;12196165;19;20105;-78
2023/04/06 05:07:56;;;;;;;;;;;;;;;0.73;79.62;100016.56;12194268;19;20090;-79
2023/04/06 05:12:31;;;;;;;12.43;6.10;;;;;;;0.74;79.35;100020.94;12173445;19;20367;-77
2023/04/06 05:16:44;;;;;;;11.93;6.18;;;;;;;0.76;78.85;100020.78;12192163;19;20022;-79
2023/04/06 05:20:49;;;;;;;11.95;5.63;;;;;;;0.80;78.83;100016.69;12181777;19;20014;-78
2023/04/06 05:24:51;;;;;;;;;;;;;;;0.85;80.00;100025.13;12220628;19;20013;-78
2023/04/06 05:28:54;;;;;;;11.00;5.50;;;;;;;0.90;79.18;100023.56;12201869;19;20349;-79
2023/04/06 05:32:57;;;;;;;12.30;6.63;;;;;;;0.97;79.66;100028.25;12172103;19;20780;-79
2023/04/06 05:37:03;;;;;;;13.25;6.50;;;;;;;1.03;79.97;100030.22;12169464;19;20657;-78
2023/04/06 05:41:07;;;;;;;12.13;6.43;;;;;;;1.10;79.66;100031.19;12193340;19;20043;-79
2023/04/06 05:45:11;;;;;;;12.07;6.70;;;;;;;1.16;79.89;100041.34;12189161;19;20006;-80
2023/04/06 05:49:14;;;;;;;14.52;6.75;;;;;;;1.24;79.72;100043.94;12196340;19;20476;-79
2023/04/06 05:53:20;;;;;;;11.10;6.13;;;;;;;1.30;79.61;100034.22;12195224;19;20100;-80
2023/04/06 05:57:28;;;;;;;12.48;7.55;;;;;;;1.40;79.27;100033.94;12176097;19;20014;-79
2023/04/06 06:01:31;;;;;;;11.00;6.03;;;;;;;1.49;78.91;100032.88;12197451;19;20003;-79
2023/04/06 06:05:34;;;;;;;12.05;6.28;;;;;;;1.58;78.34;100031.75;12179161;19;20007;-79
2023/04/06 06:09:44;;;;;;;11.25;6.38;;;;;;;1.69;78.43;100036.69;12199366;19;20098;-79
2023/04/06 06:13:56;;;;;;;10.30;5.32;;;;;;;1.79;78.69;100029.13;12195197;19;20014;-79
2023/04/06 06:18:00;;;;;;;13.23;7.00;;;;;;;1.90;78.30;100027.78;12174257;19;20034;-78
2023/04/06 06:22:04;;;;;;;14.20;6.32;;;;;;;2.01;78.27;100026.50;12195840;19;20010;-78
2023/04/06 06:26:10;;;;;;;11.18;6.63;;;;;;;2.13;77.22;100024.13;12194877;19;20010;-79
2023/04/06 06:30:13;;;;;;;14.57;6.22;;;;;;;2.29;76.95;100029.38;12173569;19;20023;-79
2023/04/06 06:34:16;;;;;;;11.30;6.60;;;;;;;2.42;75.63;100015.06;12194765;19;20392;-80
2023/04/06 06:38:18;;;;;;;12.65;7.22;;;;;;;2.59;74.88;100024.69;12210036;19;20011;-79
2023/04/06 06:42:23;;;;;;;9.85;5.80;;;;;;;2.72;74.59;100024.81;12177773;19;20393;-79
2023/04/06 06:46:55;;;;;;;15.63;7.22;;;;;;;2.88;74.23;100018.25;12190320;19;20047;-80
2023/04/06 06:50:57;;;;;;;13.68;6.50;;;;;;;3.06;73.82;100020.53;12173852;19;20586;-79
2023/04/06 06:55:00;;;;;;;15.25;7.40;;;;;;;3.27;73.02;100024.25;12191969;19;20010;-79
2023/04/06 06:59:02;;;;;;;13.27;6.38;;;;;;;3.41;71.40;100021.44;12194801;19;20002;-79
2023/04/06 07:03:05;;;;;;;12.45;6.82;;;;;;;3.57;70.21;100027.63;12177129;19;20003;-79
2023/04/06 07:07:08;;;;;;;12.10;6.80;;;;;;;3.73;69.47;100026.50;12205200;19;20003;-79
2023/04/06 07:11:10;;;;;;;13.38;6.35;;;;;;;3.94;68.93;100029.13;12206438;19;20010;-79
2023/04/06 07:15:12;;;;;;;15.80;7.60;;;;;;;4.12;68.27;100031.31;12183557;19;20011;-79
2023/04/06 07:19:19;;;;;;;13.70;6.93;;;;;;;4.34;67.50;100032.03;12209063;19;20011;-79
2023/04/06 07:23:20;;;;;;;16.80;6.97;;;;;;;4.55;67.47;100034.66;12203133;19;20010;-79
2023/04/06 07:27:22;;;;;;;11.77;7.28;;;;;;;4.75;66.69;100040.13;12192705;19;20019;-79
2023/04/06 07:31:25;;;;;;;13.13;7.22;;;;;;;4.92;65.37;100042.50;12210555;19;20066;-78
2023/04/06 07:35:30;;;;;;;12.63;7.43;;;;;;;5.09;64.69;100040.22;12206255;19;20015;-79
2023/04/06 07:39:33;;;;;;;13.27;7.30;;;;;;;5.27;63.45;100036.88;12187224;19;20014;-80
2023/04/06 07:43:40;;;;;;;14.55;7.43;;;;;;;5.55;63.94;100028.44;12208035;19;20051;-79
2023/04/06 07:47:42;;;;;;;12.65;8.25;;;;;;;5.85;63.07;100035.13;12191852;19;20563;-79
2023/04/06 07:51:44;;;;;;;14.80;8.27;;;;;;;6.08;62.15;100042.06;12273104;19;20011;-77
2023/04/06 07:55:46;;;;;;;10.75;6.50;;;;;;;6.32;61.03;100043.22;12252463;19;20094;-78
2023/04/06 07:59:48;;;;;;;15.68;8.45;;;;;;;6.61;60.98;100036.38;12190952;19;20010;-78
2023/04/06 08:03:50;;;;;;;13.40;7.68;;;;;;;6.84;60.42;100036.66;12205235;19;20010;-78
2023/04/06 08:07:52;;;;;;;12.67;7.47;;;;;;;7.08;59.19;100034.19;12207901;19;20038;-78
2023/04/06 08:11:54;;;;;;;14.57;8.10;;;;;;;7.35;59.30;100036.72;12183718;19;20039;-78
2023/04/06 08:15:56;;;;;;;12.57;7.87;;;;;;;7.66;57.68;100030.34;12200662;19;20010;-77
2023/04/06 08:19:58;;;;;;;13.73;6.50;;;;;;;7.98;55.81;100037.38;12199018;19;20006;-78
2023/04/06 08:24:01;;;;;;;13.50;7.27;;;;;;;8.35;54.25;100025.56;12180171;19;20072;-78
2023/04/06 08:28:03;;;;;;;12.10;6.78;;;;;;;8.56;52.51;100033.34;12201753;19;20082;-79
2023/04/06 08:32:06;;;;;;;10.40;6.28;;;;;;;8.85;48.73;100028.13;12172632;19;20019;-79
2023/04/06 08:36:09;;;;;;;14.70;7.07;;;;;;;9.11;47.07;100027.72;12205024;19;20368;-77
2023/04/06 08:40:14;;;;;;;13.45;6.82;;;;;;;9.28;48.01;100029.78;12199834;19;20015;-79
2023/04/06 08:44:19;;;;;;;14.05;6.88;;;;;;;9.51;47.04;100028.97;12195830;19;20062;-77
2023/04/06 08:48:21;;;;;;;12.32;6.35;;;;;;;9.72;45.98;100031.16;12142782;19;20478;-77
2023/04/06 08:52:25;;;;;;;11.57;6.88;;;;;;;9.89;45.69;100036.78;12194972;19;20030;-78
2023/04/06 08:56:28;;;;;;;11.88;6.78;;;;;;;9.95;45.41;100027.56;12195192;19;20007;-77
2023/04/06 09:00:31;;;;;;;13.23;7.63;;;;;;;10.22;44.73;100027.88;12201367;19;20074;-77
2023/04/06 09:04:35;;;;;;;14.57;7.40;;;;;;;10.37;45.07;100021.06;12191879;19;20030;-77
2023/04/06 09:08:39;;;;;;;12.07;7.03;;;;;;;10.51;44.64;100027.16;12221564;19;20103;-77
2023/04/06 09:12:41;;;;;;;12.70;7.70;;;;;;;10.81;44.78;100025.00;12180603;19;20007;-78
2023/04/06 09:16:47;;;;;;;12.77;6.75;;;;;;;11.11;42.77;100023.88;12198868;19;20014;-78
2023/04/06 09:21:06;;;;;;;16.10;7.63;;;;;;;11.01;42.00;100020.97;12200802;19;20471;-78
2023/04/06 09:25:10;;;;;;;11.45;7.30;;;;;;;11.07;42.71;100026.31;12198654;19;20046;-77
2023/04/06 09:29:26;;;;;;;13.07;7.18;;;;;;;11.14;42.83;100015.94;12195022;19;20006;-77
2023/04/06 09:33:29;;;;;;;16.48;7.90;;;;;;;11.26;42.79;100010.34;12174987;19;20555;-77
2023/04/06 09:37:30;;;;;;;17.95;8.10;;;;;;;11.39;42.71;100018.31;12196424;19;20014;-78
2023/04/06 09:41:35;;;;;;;13.90;7.88;;;;;;;11.62;42.08;100014.53;12199499;19;20019;-78
2023/04/06 09:45:37;;;;;;;12.20;7.45;;;;;;;11.85;41.78;100012.72;12191623;19;20014;-78
2023/04/06 09:49:45;;;;;;;14.35;7.30;;;;;;;11.92;40.41;100010.59;12198802;19;20019;-79
2023/04/06 09:53:53;;;;;;;13.95;7.53;;;;;;;12.02;40.99;100012.69;12199732;19;20018;-78
2023/04/06 09:58:04;;;;;;;13.15;8.07;;;;;;;12.16;40.41;100013.97;12198671;19;20007;-78
2023/04/06 10:02:15;;;;;;;14.35;7.57;;;;;;;12.32;39.78;100010.34;12225215;19;20274;-79
2023/04/06 10:06:21;;;;;;;15.73;7.03;;;;;;;12.47;38.95;100003.34;12179792;19;20453;-79
2023/04/06 10:10:23;;;;;;;12.40;7.68;;;;;;;12.57;39.47;100008.97;12199786;19;20015;-79
2023/04/06 10:14:25;;;;;;;12.70;7.80;;;;;;;12.77;38.80;100006.44;12199090;19;20020;-79
2023/04/06 10:18:27;;;;;;;13.13;7.13;;;;;;;12.95;38.49;100001.66;12176675;19;20014;-78
2023/04/06 10:22:43;;;;;;;11.40;7.40;;;;;;;13.26;38.19;100005.56;12199167;19;20015;-79
2023/04/06 10:26:57;;;;;;;14.85;7.70;;;;;;;13.50;37.08;99995.00;12196768;19;20046;-78
2023/04/06 10:31:01;;;;;;;11.10;6.53;;;;;;;13.53;35.75;99999.16;12177066;19;20043;-79
2023/04/06 10:35:10;;;;;;;12.40;6.93;;;;;;;13.45;36.69;100000.50;12196614;19;20014;-80
2023/04/06 10:39:12;;;;;;;15.80;7.30;;;;;;;13.30;36.87;99990.13;12186363;19;20010;-79
2023/04/06 10:43:21;;;;;;;12.63;7.20;;;;;;;13.43;36.88;99998.00;12219026;19;20006;-78
2023/04/06 10:47:23;;;;;;;15.88;7.47;;;;;;;13.81;35.60;100003.53;12210132;19;20021;-80
2023/04/06 10:51:27;;;;;;;12.90;7.10;;;;;;;14.20;35.69;99983.81;12181204;19;20490;-79
2023/04/06 10:55:30;;;;;;;13.32;7.22;;;;;;;14.27;35.26;99988.00;12203340;19;20484;-79
2023/04/06 10:59:32;;;;;;;12.77;8.10;;;;;;;14.40;35.60;99980.31;12207259;19;20002;-79
2023/04/06 11:03:43;;;;;;;17.23;7.73;;;;;;;14.63;34.68;99971.53;12184848;19;20112;-79
2023/04/06 11:07:44;;;;;;;13.65;7.13;;;;;;;14.75;35.07;99974.06;12205380;19;20018;-78
2023/04/06 11:11:46;;;;;;;12.18;7.25;;;;;;;14.80;34.27;99966.59;12205157;19;20019;-79
2023/04/06 11:15:48;;;;;;;12.00;6.75;;;;;;;14.95;33.52;99956.63;12183569;19;20043;-79
2023/04/06 11:19:50;;;;;;;12.35;7.18;;;;;;;15.20;33.02;99953.03;12205486;19;20015;-79
2023/04/06 11:23:52;;;;;;;11.25;6.80;;;;;;;15.69;33.23;99952.50;12176055;19;19998;-80
2023/04/06 11:27:54;;;;;;;13.77;7.22;;;;;;;16.06;32.39;99948.50;12201023;19;20027;-80
2023/04/06 11:32:04;;;;;;;13.25;6.95;;;;;;;16.08;31.35;99935.16;12203489;19;19999;-79
2023/04/06 11:36:06;;;;;;;11.15;6.65;;;;;;;16.37;30.93;99943.69;12180038;19;20028;-80
2023/04/06 11:40:10;;;;;;;12.75;6.97;;;;;;;16.74;30.29;99931.22;12199797;19;20042;-79
2023/04/06 11:44:12;;;;;;;11.53;6.83;;;;;;;17.05;29.84;99926.31;12200208;19;20039;-79
2023/04/06 11:48:20;;;;;;;14.18;8.25;;;;;;;17.25;29.97;99928.94;12177686;19;20010;-79
2023/04/06 11:52:25;;;;;;;12.77;6.57;;;;;;;18.00;28.59;99924.91;12203006;19;20023;-79
2023/04/06 11:56:30;;;;;;;13.38;7.18;;;;;;;18.00;28.10;99913.75;12210436;19;20773;-79
2023/04/06 12:00:34;;;;;;;11.43;7.00;;;;;;;18.23;28.21;99917.63;12179060;19;20009;-79
2023/04/06 12:04:36;;;;;;;13.15;7.15;;;;;;;18.29;27.80;99912.81;12198920;19;20003;-79
2023/04/06 12:08:38;;;;;;;13.27;6.88;;;;;;;18.13;27.63;99910.22;12203874;19;20376;-80
2023/04/06 12:12:40;;;;;;;12.18;6.53;;;;;;;18.60;27.32;99902.91;12181157;19;20006;-78
2023/04/06 12:16:42;;;;;;;12.90;7.05;;;;;;;19.06;26.35;99891.06;12200334;19;20010;-79
2023/04/06 12:20:44;;;;;;;9.83;6.53;;;;;;;19.53;26.60;99900.31;12206722;19;20017;-79
2023/04/06 12:24:45;;;;;;;13.40;6.77;;;;;;;19.98;26.52;99895.00;12180607;19;20074;-81
2023/04/06 12:28:47;;;;;;;15.60;6.47;;;;;;;19.77;25.52;99904.94;12204097;19;20446;-79
2023/04/06 12:32:50;;;;;;;10.17;6.47;;;;;;;20.04;25.91;99884.53;12195154;19;20291;-79
2023/04/06 12:36:52;;;;;;;11.02;6.15;;;;;;;19.43;25.11;99878.16;12202208;19;20010;-80
2023/04/06 12:40:54;;;;;;;8.82;5.75;;;;;;;18.71;26.04;99888.78;12206245;19;20013;-80
2023/04/06 12:44:56;;;;;;;11.73;6.33;;;;;;;18.33;25.97;99894.38;12175078;19;20078;-79
2023/04/06 12:48:59;;;;;;;8.90;5.10;;;;;;;18.27;26.76;99884.41;12198968;19;20002;-79
2023/04/06 12:53:00;;;;;;;10.48;5.43;;;;;;;18.15;26.77;99880.09;12193313;19;20557;-79
2023/04/06 12:57:02;;;;;;;9.23;5.90;;;;;;;17.98;26.51;99882.53;12173740;19;20018;-79
2023/04/06 13:01:06;;;;;;;9.80;6.03;;;;;;;18.49;27.06;99876.28;12214953;19;20407;-79
2023/04/06 13:05:08;;;;;;;9.05;5.63;;;;;;;18.43;26.36;99877.47;12198338;19;20479;-79
2023/04/06 13:09:10;;;;;;;9.93;5.78;;;;;;;18.34;26.42;99873.69;12179520;19;20464;-79
2023/04/06 13:13:12;;;;;;;10.82;5.45;;;;;;;18.43;26.64;99869.94;12197568;19;20021;-79
2023/04/06 13:17:13;;;;;;;12.30;5.70;;;;;;;18.70;26.41;99864.81;12207169;19;20014;-79
2023/04/06 13:21:16;;;;;;;9.52;5.80;;;;;;;18.30;25.87;99867.91;12191734;19;20095;-79
2023/04/06 13:25:17;;;;;;;9.95;6.13;;;;;;;17.89;26.03;99868.41;12260145;19;20011;-79
2023/04/06 13:29:19;;;;;;;7.00;5.18;;;;;;;17.84;27.01;99865.69;12271243;19;20027;-80
2023/04/06 13:33:21;;;;;;;7.03;5.23;;;;;;;17.90;27.06;99860.88;12223327;19;20013;-79
2023/04/06 13:37:23;;;;;;;11.88;5.90;;;;;;;17.98;27.45;99863.00;12248263;19;20018;-79
2023/04/06 13:41:26;;;;;;;11.00;5.78;;;;;;;18.27;26.71;99850.94;12246003;19;20007;-79
2023/04/06 13:45:28;;;;;;;9.52;5.95;;;;;;;18.46;26.72;99851.75;12220208;19;20006;-79
2023/04/06 13:49:30;;;;;;;7.87;5.83;;;;;;;18.73;26.64;99850.25;12234184;19;20007;-79
2023/04/06 13:53:31;;;;;;;10.93;5.60;;;;;;;18.68;25.74;99846.41;12213741;19;20030;-80
2023/04/06 13:57:33;;;;;;;9.35;5.78;;;;;;;18.45;26.49;99847.31;12180794;19;20271;-80
2023/04/06 14:01:35;;;;;;;8.70;5.78;;;;;;;18.22;26.14;99847.06;12207150;19;20464;-80
2023/04/06 14:05:37;;;;;;;9.47;6.10;;;;;;;18.43;26.46;99849.56;12200437;19;20006;-79
2023/04/06 14:09:38;;;;;;;13.70;6.53;;;;;;;18.30;26.18;99842.78;12183313;19;20337;-79
2023/04/06 14:13:41;;;;;;;10.07;7.17;;;;;;;17.73;26.28;99845.44;12215524;19;20002;-79
2023/04/06 14:17:44;;;;;;;11.93;6.53;;;;;;;17.63;26.98;99841.94;12215206;19;20314;-79
2023/04/06 14:21:48;;;;;;;12.03;5.83;;;;;;;17.43;27.21;99842.97;12193995;19;20003;-80
2023/04/06 14:25:50;;;;;;;13.13;7.05;;;;;;;17.08;26.89;99842.22;12216374;19;20107;-79
2023/04/06 14:29:52;;;;;;;11.45;6.70;;;;;;;16.67;26.93;99845.31;12200231;19;20027;-79
2023/04/06 14:33:54;;;;;;;;;;;;;;;16.50;27.39;99836.50;12237351;19;20066;-78
2023/04/06 14:37:59;;;;;;;10.82;6.38;;;;;;;16.48;27.70;99838.75;12230594;19;19919;-79
2023/04/06 14:42:00;;;;;;;10.93;6.28;;;;;;;16.47;27.35;99837.91;12191753;19;20003;-79
2023/04/06 14:46:02;;;;;;;12.03;6.20;;;;;;;16.48;28.10;99828.47;12214784;19;20433;-79
2023/04/06 14:50:05;;;;;;;12.87;6.10;;;;;;;16.61;28.05;99826.97;12212140;19;20027;-79
2023/04/06 14:54:07;;;;;;;;;;;;;;;16.67;27.75;99820.25;12202167;19;20044;-79
2023/04/06 14:58:09;;;;;;;10.57;6.07;;;;;;;16.82;27.95;99817.38;12201291;19;19922;-79
2023/04/06 15:02:10;;;;;;;10.40;5.97;;;;;;;16.79;27.79;99814.34;12211276;19;20087;-79
2023/04/06 15:06:15;;;;;;;9.17;6.33;;;;;;;16.78;27.69;99815.50;12186557;19;20007;-79
2023/04/06 15:10:17;;;;;;;11.52;6.57;;;;;;;16.47;28.08;99821.22;12210000;19;20030;-79
2023/04/06 15:14:18;;;;;;;11.52;6.18;;;;;;;16.26;28.39;99812.19;12206470;19;20034;-79
2023/04/06 15:18:21;;;;;;;10.40;6.32;;;;;;;16.21;28.19;99806.69;12179027;19;20020;-78
2023/04/06 15:22:22;;;;;;;13.93;6.03;;;;;;;16.02;28.56;99812.06;12203223;19;20031;-79
2023/04/06 15:26:26;;;;;;;9.10;5.05;;;;;;;15.87;28.36;99812.13;12206691;19;20597;-80
2023/04/06 15:30:27;;;;;;;8.55;4.38;;;;;;;15.69;28.25;99816.38;12182252;19;20006;-79
2023/04/06 15:34:33;;;;;;;6.32;3.95;;;;;;;15.42;28.66;99820.31;12209127;19;20364;-80
2023/04/06 15:38:35;;;;;;;7.55;4.03;;;;;;;15.14;28.70;99810.66;12204868;19;20027;-79
2023/04/06 15:42:37;;;;;;;8.65;4.05;;;;;;;14.88;28.92;99809.03;12177710;19;20026;-79
2023/04/06 15:46:39;;;;;;;7.25;4.18;;;;;;;14.66;29.38;99814.84;12203492;19;20082;-79
2023/04/06 15:50:40;;;;;;;8.05;4.30;;;;;;;14.29;28.96;99821.44;12209713;19;19998;-80
2023/04/06 15:54:46;;;;;;;5.22;3.10;;;;;;;14.15;28.69;99815.56;12198789;19;20002;-79
2023/04/06 15:58:48;;;;;;;8.23;3.80;;;;;;;14.03;29.58;99813.03;12204480;19;20010;-78
2023/04/06 16:02:50;;;;;;;5.50;3.13;;;;;;;13.96;30.00;99820.78;12187446;19;20480;-80
2023/04/06 16:06:52;;;;;;;7.27;3.80;;;;;;;13.81;30.12;99824.34;12208291;19;20003;-80
2023/04/06 16:10:53;;;;;;;8.32;4.57;;;;;;;13.67;30.54;99820.41;12208049;19;20173;-80
2023/04/06 16:14:55;;;;;;;8.70;4.10;;;;;;;13.57;30.77;99818.41;12185336;19;20369;-80
2023/04/06 16:18:57;;;;;;;7.40;4.38;;;;;;;13.52;31.33;99823.09;12209625;19;20003;-80
2023/04/06 16:22:59;;;;;;;8.35;3.97;;;;;;;13.46;31.17;99816.69;12207040;19;20551;-79
2023/04/06 16:27:01;;;;;;;6.65;3.78;;;;;;;13.34;31.91;99816.09;12216987;19;20513;-80
2023/04/06 16:31:03;;;;;;;4.95;2.60;;;;;;;13.21;32.11;99828.44;12223655;19;20026;-80
2023/04/06 16:35:06;;;;;;;7.80;3.75;;;;;;;13.16;32.24;99817.31;12202446;19;20480;-79
2023/04/06 16:39:08;;;;;;;7.22;3.58;;;;;;;13.04;32.59;99834.13;12190797;19;20009;-79
2023/04/06 16:43:10;;;;;;;6.20;3.60;;;;;;;12.96;32.68;99831.84;12203949;19;20017;-79
2023/04/06 16:47:12;;;;;;;5.95;2.92;;;;;;;12.81;33.19;99827.03;12205192;19;20027;-79
2023/04/06 16:51:14;;;;;;;7.82;3.25;;;;;;;12.72;33.33;99832.19;12196341;19;20010;-79
2023/04/06 16:55:16;;;;;;;7.90;2.90;;;;;;;12.70;33.54;99836.31;12202775;19;20483;-78
2023/04/06 16:59:18;;;;;;;6.60;2.80;;;;;;;12.64;34.24;99829.09;12203403;19;20038;-78
2023/04/06 17:03:20;;;;;;;6.32;3.30;;;;;;;12.48;34.94;99836.41;12184933;19;20018;-79
2023/04/06 17:07:25;;;;;;;7.57;3.87;;;;;;;12.40;34.91;99831.34;12210462;19;20010;-79
2023/04/06 17:11:27;;;;;;;5.28;2.83;;;;;;;12.35;35.00;99823.03;12207531;19;20007;-78
2023/04/06 17:15:41;;;;;;;5.38;2.55;;;;;;;12.21;35.90;99831.72;12181870;19;20348;-78
2023/04/06 17:19:43;;;;;;;4.60;2.60;;;;;;;12.08;36.78;99826.63;12203998;19;20002;-77
2023/04/06 17:23:46;;;;;;;5.25;2.85;;;;;;;12.00;36.60;99830.66;12203652;19;20011;-78
2023/04/06 17:27:48;;;;;;;6.30;2.40;;;;;;;11.95;37.02;99829.75;12180063;19;20024;-78
2023/04/06 17:31:50;;;;;;;4.10;1.92;;;;;;;11.89;37.74;99825.28;12205645;19;20011;-78
2023/04/06 17:35:52;;;;;;;4.23;1.90;;;;;;;11.76;38.32;99835.59;12180396;19;21107;-78
2023/04/06 17:39:57;;;;;;;3.33;2.10;;;;;;;11.61;38.69;99835.41;12205323;19;20030;-79
2023/04/06 17:43:59;;;;;;;5.38;2.25;;;;;;;11.56;39.83;99840.84;12201075;19;20018;-78
2023/04/06 17:48:01;;;;;;;4.70;2.75;;;;;;;11.38;40.08;99828.19;12179763;19;20289;-78
2023/04/06 17:52:03;;;;;;;7.10;2.80;;;;;;;11.29;39.76;99838.81;12200084;19;20723;-78
2023/04/06 17:56:05;;;;;;;3.50;2.20;;;;;;;11.24;40.15;99843.44;12199761;19;20038;-78
2023/04/06 18:00:07;;;;;;;6.88;2.72;;;;;;;11.14;41.70;99853.22;12175374;19;20006;-79
2023/04/06 18:04:09;;;;;;;5.32;2.92;;;;;;;11.05;41.94;99851.16;12198836;19;20009;-77
2023/04/06 18:08:11;;;;;;;5.68;3.40;;;;;;;11.01;42.44;99861.84;12199364;19;20002;-78
2023/04/06 18:12:13;;;;;;;7.80;3.58;;;;;;;10.96;42.23;99870.03;12177914;19;20142;-78
2023/04/06 18:16:16;;;;;;;5.63;3.47;;;;;;;10.88;43.66;99868.53;12210164;19;20006;-79
2023/04/06 18:20:18;;;;;;;6.70;3.65;;;;;;;10.80;44.62;99877.22;12215189;19;20007;-78
2023/04/06 18:24:20;;;;;;;6.78;3.53;;;;;;;10.79;44.96;99880.22;12175294;19;20006;-78
2023/04/06 18:28:41;;;;;;;5.80;3.05;;;;;;;10.68;46.84;99896.59;12199557;19;20011;-78
2023/04/06 18:32:44;;;;;;;6.22;3.47;;;;;;;10.62;47.13;99891.22;12202624;19;20007;-79
2023/04/06 18:36:46;;;;;;;;;;;;;;;10.49;47.90;99889.63;12182756;19;20085;-78
2023/04/06 18:40:48;;;;;;;6.18;2.80;;;;;;;10.44;48.95;99895.88;12200849;19;19915;-79
2023/04/06 18:44:50;;;;;;;10.07;3.40;;;;;;;10.33;49.54;99894.00;12178611;19;20039;-78
2023/04/06 18:48:52;;;;;;;6.03;3.83;;;;;;;10.30;50.60;99899.19;12196663;19;20035;-79
2023/04/06 18:52:54;;;;;;;9.38;3.80;;;;;;;10.16;50.50;99899.44;12196039;19;20035;-79